sensor_id;sensor_type;location;lat;lon;timestamp;pressure;altitude;pressure_sealevel;temperature;humidity
80934;BME280;70392;51.144;17.050;2023-06-19T00:01:24;100268.48;;;16.16;68.25
80934;BME280;70392;51.144;17.050;2023-06-19T00:03:41;100263.50;;;16.12;68.35
80934;BME280;70392;51.144;17.050;2023-06-19T00:05:56;100270.85;;;16.10;68.82
80934;BME280;70392;51.144;17.050;2023-06-19T00:08:13;100264.34;;;16.08;69.24
80934;BME280;70392;51.144;17.050;2023-06-19T00:10:28;100261.21;;;16.04;69.30
80934;BME280;70392;51.144;17.050;2023-06-19T00:12:45;100259.20;;;16.02;70.29
80934;BME280;70392;51.144;17.050;2023-06-19T00:15:01;100256.60;;;16.00;69.87
80934;BME280;70392;51.144;17.050;2023-06-19T00:17:18;100259.22;;;15.98;69.42
80934;BME280;70392;51.144;17.050;2023-06-19T00:19:36;100256.31;;;15.99;70.91
80934;BME280;70392;51.144;17.050;2023-06-19T00:22:02;100254.29;;;15.95;70.25
80934;BME280;70392;51.144;17.050;2023-06-19T00:24:18;100255.59;;;15.95;70.14
80934;BME280;70392;51.144;17.050;2023-06-19T00:26:55;100250.04;;;15.95;69.77
80934;BME280;70392;51.144;17.050;2023-06-19T00:29:12;100249.15;;;15.92;69.90
80934;BME280;70392;51.144;17.050;2023-06-19T00:31:28;100243.29;;;15.88;70.17
80934;BME280;70392;51.144;17.050;2023-06-19T00:33:48;100246.86;;;15.84;70.03
80934;BME280;70392;51.144;17.050;2023-06-19T00:36:12;100253.66;;;15.81;70.56
80934;BME280;70392;51.144;17.050;2023-06-19T00:38:32;100253.51;;;15.79;70.68
80934;BME280;70392;51.144;17.050;2023-06-19T00:40:49;100255.91;;;15.77;70.56
80934;BME280;70392;51.144;17.050;2023-06-19T00:43:06;100247.90;;;15.72;70.47
80934;BME280;70392;51.144;17.050;2023-06-19T00:45:25;100254.78;;;15.63;70.39
80934;BME280;70392;51.144;17.050;2023-06-19T00:47:42;100255.34;;;15.61;70.52
80934;BME280;70392;51.144;17.050;2023-06-19T00:50:01;100254.23;;;15.61;70.86
80934;BME280;70392;51.144;17.050;2023-06-19T00:52:17;100252.32;;;15.57;71.11
80934;BME280;70392;51.144;17.050;2023-06-19T00:54:34;100254.57;;;15.54;70.67
80934;BME280;70392;51.144;17.050;2023-06-19T00:57:10;100245.32;;;15.53;70.44
80934;BME280;70392;51.144;17.050;2023-06-19T00:59:26;100240.54;;;15.48;70.03
80934;BME280;70392;51.144;17.050;2023-06-19T01:01:43;100242.90;;;15.42;70.44
80934;BME280;70392;51.144;17.050;2023-06-19T01:03:59;100242.84;;;15.38;70.86
80934;BME280;70392;51.144;17.050;2023-06-19T01:06:26;100243.34;;;15.34;70.55
80934;BME280;70392;51.144;17.050;2023-06-19T01:11:18;100246.18;;;15.31;70.31
80934;BME280;70392;51.144;17.050;2023-06-19T01:16:06;100247.80;;;15.18;69.89
80934;BME280;70392;51.144;17.050;2023-06-19T01:18:27;100248.79;;;15.12;70.50
80934;BME280;70392;51.144;17.050;2023-06-19T01:20:44;100243.63;;;15.09;70.28
80934;BME280;70392;51.144;17.050;2023-06-19T01:23:08;100245.57;;;15.04;70.57
80934;BME280;70392;51.144;17.050;2023-06-19T01:25:24;100243.90;;;14.99;70.15
80934;BME280;70392;51.144;17.050;2023-06-19T01:27:44;100246.98;;;14.96;70.40
80934;BME280;70392;51.144;17.050;2023-06-19T01:30:02;100248.49;;;14.95;71.21
80934;BME280;70392;51.144;17.050;2023-06-19T01:34:46;100248.37;;;14.89;70.89
80934;BME280;70392;51.144;17.050;2023-06-19T01:37:06;100249.73;;;14.85;70.73
80934;BME280;70392;51.144;17.050;2023-06-19T01:39:24;100249.09;;;14.82;70.70
80934;BME280;70392;51.144;17.050;2023-06-19T01:41:42;100248.85;;;14.78;70.92
80934;BME280;70392;51.144;17.050;2023-06-19T01:43:59;100247.34;;;14.73;71.25
80934;BME280;70392;51.144;17.050;2023-06-19T01:46:23;100249.84;;;14.74;72.02
80934;BME280;70392;51.144;17.050;2023-06-19T01:48:39;100248.21;;;14.74;72.37
80934;BME280;70392;51.144;17.050;2023-06-19T01:50:58;100248.93;;;14.72;71.42
80934;BME280;70392;51.144;17.050;2023-06-19T01:53:15;100247.65;;;14.68;71.14
80934;BME280;70392;51.144;17.050;2023-06-19T01:55:33;100245.90;;;14.66;71.57
80934;BME280;70392;51.144;17.050;2023-06-19T01:57:49;100244.59;;;14.62;71.29
80934;BME280;70392;51.144;17.050;2023-06-19T02:00:13;100250.24;;;14.61;71.27
80934;BME280;70392;51.144;17.050;2023-06-19T02:02:29;100252.24;;;14.58;71.30
80934;BME280;70392;51.144;17.050;2023-06-19T02:04:53;100253.52;;;14.57;71.96
80934;BME280;70392;51.144;17.050;2023-06-19T02:07:09;100245.40;;;14.55;71.77
80934;BME280;70392;51.144;17.050;2023-06-19T02:09:26;100248.80;;;14.52;72.22
80934;BME280;70392;51.144;17.050;2023-06-19T02:11:45;100247.48;;;14.50;71.55
80934;BME280;70392;51.144;17.050;2023-06-19T02:14:01;100253.62;;;14.47;71.83
80934;BME280;70392;51.144;17.050;2023-06-19T02:16:18;100248.05;;;14.42;71.73
80934;BME280;70392;51.144;17.050;2023-06-19T02:18:38;100251.52;;;14.38;71.50
80934;BME280;70392;51.144;17.050;2023-06-19T02:20:54;100247.28;;;14.32;71.73
80934;BME280;70392;51.144;17.050;2023-06-19T02:23:14;100247.28;;;14.35;71.64
80934;BME280;70392;51.144;17.050;2023-06-19T02:25:36;100249.23;;;14.33;71.63
80934;BME280;70392;51.144;17.050;2023-06-19T02:27:52;100244.54;;;14.30;71.74
80934;BME280;70392;51.144;17.050;2023-06-19T02:30:09;100246.23;;;14.31;72.43
80934;BME280;70392;51.144;17.050;2023-06-19T02:32:25;100244.01;;;14.29;72.30
80934;BME280;70392;51.144;17.050;2023-06-19T02:35:05;100250.18;;;14.30;71.84
80934;BME280;70392;51.144;17.050;2023-06-19T02:37:22;100254.38;;;14.30;72.55
80934;BME280;70392;51.144;17.050;2023-06-19T02:39:45;100247.27;;;14.26;72.08
80934;BME280;70392;51.144;17.050;2023-06-19T02:42:05;100251.38;;;14.19;72.24
80934;BME280;70392;51.144;17.050;2023-06-19T02:44:21;100240.52;;;14.19;72.59
80934;BME280;70392;51.144;17.050;2023-06-19T02:46:38;100245.57;;;14.16;72.21
80934;BME280;70392;51.144;17.050;2023-06-19T02:48:56;100248.57;;;14.16;72.22
80934;BME280;70392;51.144;17.050;2023-06-19T02:51:12;100247.82;;;14.13;71.93
80934;BME280;70392;51.144;17.050;2023-06-19T02:53:28;100245.43;;;14.12;72.39
80934;BME280;70392;51.144;17.050;2023-06-19T02:55:44;100251.23;;;14.11;72.25
80934;BME280;70392;51.144;17.050;2023-06-19T02:58:00;100247.99;;;14.10;72.06
80934;BME280;70392;51.144;17.050;2023-06-19T03:00:17;100254.59;;;14.10;72.76
80934;BME280;70392;51.144;17.050;2023-06-19T03:02:34;100260.55;;;14.10;72.84
80934;BME280;70392;51.144;17.050;2023-06-19T03:05:09;100267.24;;;14.14;72.40
80934;BME280;70392;51.144;17.050;2023-06-19T03:07:28;100263.87;;;14.15;72.63
80934;BME280;70392;51.144;17.050;2023-06-19T03:09:45;100269.98;;;14.18;72.36
80934;BME280;70392;51.144;17.050;2023-06-19T03:12:01;100264.35;;;14.19;71.93
80934;BME280;70392;51.144;17.050;2023-06-19T03:14:18;100264.42;;;14.21;71.69
80934;BME280;70392;51.144;17.050;2023-06-19T03:16:34;100263.07;;;14.24;71.74
80934;BME280;70392;51.144;17.050;2023-06-19T03:18:51;100264.13;;;14.28;71.65
80934;BME280;70392;51.144;17.050;2023-06-19T03:21:19;100269.12;;;14.30;71.66
80934;BME280;70392;51.144;17.050;2023-06-19T03:26:35;100273.76;;;14.53;70.56
80934;BME280;70392;51.144;17.050;2023-06-19T03:28:53;100271.66;;;14.55;70.73
80934;BME280;70392;51.144;17.050;2023-06-19T03:31:11;100268.59;;;14.59;71.12
80934;BME280;70392;51.144;17.050;2023-06-19T03:33:28;100261.85;;;14.62;70.87
80934;BME280;70392;51.144;17.050;2023-06-19T03:35:56;100257.40;;;14.68;70.59
80934;BME280;70392;51.144;17.050;2023-06-19T03:38:13;100258.37;;;14.74;70.52
80934;BME280;70392;51.144;17.050;2023-06-19T03:40:30;100256.27;;;14.79;70.40
80934;BME280;70392;51.144;17.050;2023-06-19T03:42:47;100253.60;;;14.85;70.59
80934;BME280;70392;51.144;17.050;2023-06-19T03:45:04;100260.10;;;14.95;70.79
80934;BME280;70392;51.144;17.050;2023-06-19T03:47:21;100257.27;;;15.09;70.71
80934;BME280;70392;51.144;17.050;2023-06-19T03:49:37;100256.59;;;15.24;70.76
80934;BME280;70392;51.144;17.050;2023-06-19T03:51:54;100253.54;;;15.39;70.56
80934;BME280;70392;51.144;17.050;2023-06-19T03:54:11;100253.45;;;15.55;71.38
80934;BME280;70392;51.144;17.050;2023-06-19T03:56:28;100254.87;;;15.75;71.41
80934;BME280;70392;51.144;17.050;2023-06-19T03:58:47;100254.77;;;15.93;70.81
80934;BME280;70392;51.144;17.050;2023-06-19T04:01:03;100259.13;;;16.10;70.06
80934;BME280;70392;51.144;17.050;2023-06-19T04:03:21;100257.96;;;16.28;69.98
80934;BME280;70392;51.144;17.050;2023-06-19T04:05:41;100260.41;;;16.44;70.10
80934;BME280;70392;51.144;17.050;2023-06-19T04:07:58;100262.41;;;16.62;71.29
80934;BME280;70392;51.144;17.050;2023-06-19T04:10:22;100264.10;;;16.81;70.83
80934;BME280;70392;51.144;17.050;2023-06-19T04:12:40;100267.77;;;16.97;70.59
80934;BME280;70392;51.144;17.050;2023-06-19T04:15:15;100260.91;;;17.16;68.86
80934;BME280;70392;51.144;17.050;2023-06-19T04:17:31;100266.98;;;17.34;69.07
80934;BME280;70392;51.144;17.050;2023-06-19T04:20:11;100265.60;;;17.54;68.26
80934;BME280;70392;51.144;17.050;2023-06-19T04:22:27;100270.80;;;17.68;68.11
80934;BME280;70392;51.144;17.050;2023-06-19T04:24:43;100264.91;;;17.82;67.86
80934;BME280;70392;51.144;17.050;2023-06-19T04:26:59;100258.34;;;17.93;68.76
80934;BME280;70392;51.144;17.050;2023-06-19T04:29:17;100264.20;;;18.04;68.69
80934;BME280;70392;51.144;17.050;2023-06-19T04:31:48;100263.88;;;18.20;67.78
80934;BME280;70392;51.144;17.050;2023-06-19T04:34:05;100263.52;;;18.32;67.24
80934;BME280;70392;51.144;17.050;2023-06-19T04:36:22;100269.21;;;18.41;66.94
80934;BME280;70392;51.144;17.050;2023-06-19T04:38:51;100277.26;;;18.53;67.12
80934;BME280;70392;51.144;17.050;2023-06-19T04:41:07;100282.05;;;18.63;66.88
80934;BME280;70392;51.144;17.050;2023-06-19T04:43:34;100271.30;;;18.73;66.68
80934;BME280;70392;51.144;17.050;2023-06-19T04:45:50;100268.48;;;18.84;66.40
80934;BME280;70392;51.144;17.050;2023-06-19T04:48:11;100271.48;;;18.93;66.17
80934;BME280;70392;51.144;17.050;2023-06-19T04:50:27;100272.51;;;18.99;66.59
80934;BME280;70392;51.144;17.050;2023-06-19T04:52:44;100277.75;;;19.06;66.71
80934;BME280;70392;51.144;17.050;2023-06-19T04:55:00;100284.06;;;19.12;66.88
80934;BME280;70392;51.144;17.050;2023-06-19T04:57:19;100288.90;;;19.16;66.46
80934;BME280;70392;51.144;17.050;2023-06-19T04:59:35;100282.41;;;19.18;65.78
80934;BME280;70392;51.144;17.050;2023-06-19T05:01:56;100283.23;;;19.21;65.70
80934;BME280;70392;51.144;17.050;2023-06-19T05:04:12;100284.21;;;19.25;65.58
80934;BME280;70392;51.144;17.050;2023-06-19T05:06:28;100276.01;;;19.30;65.89
80934;BME280;70392;51.144;17.050;2023-06-19T05:08:43;100285.64;;;19.32;65.97
80934;BME280;70392;51.144;17.050;2023-06-19T05:11:00;100286.05;;;19.36;66.14
80934;BME280;70392;51.144;17.050;2023-06-19T05:13:18;100288.34;;;19.40;65.44
80934;BME280;70392;51.144;17.050;2023-06-19T05:15:34;100283.89;;;19.43;66.17
80934;BME280;70392;51.144;17.050;2023-06-19T05:17:51;100282.48;;;19.46;65.53
80934;BME280;70392;51.144;17.050;2023-06-19T05:20:08;100287.28;;;19.49;65.80
80934;BME280;70392;51.144;17.050;2023-06-19T05:22:24;100282.15;;;19.54;65.21
80934;BME280;70392;51.144;17.050;2023-06-19T05:24:45;100288.58;;;19.61;65.60
80934;BME280;70392;51.144;17.050;2023-06-19T05:27:01;100288.93;;;19.69;65.46
80934;BME280;70392;51.144;17.050;2023-06-19T05:29:18;100299.38;;;19.79;64.74
80934;BME280;70392;51.144;17.050;2023-06-19T05:31:37;100295.72;;;19.88;64.77
80934;BME280;70392;51.144;17.050;2023-06-19T05:33:53;100309.14;;;19.95;64.15
80934;BME280;70392;51.144;17.050;2023-06-19T05:36:12;100307.48;;;20.13;63.72
80934;BME280;70392;51.144;17.050;2023-06-19T05:38:30;100314.20;;;20.22;63.32
80934;BME280;70392;51.144;17.050;2023-06-19T05:40:46;100312.45;;;20.32;63.40
80934;BME280;70392;51.144;17.050;2023-06-19T05:43:03;100322.13;;;20.47;62.81
80934;BME280;70392;51.144;17.050;2023-06-19T05:45:19;100325.14;;;20.63;62.39
80934;BME280;70392;51.144;17.050;2023-06-19T05:47:37;100333.35;;;20.79;62.50
80934;BME280;70392;51.144;17.050;2023-06-19T05:49:53;100327.59;;;20.96;61.84
80934;BME280;70392;51.144;17.050;2023-06-19T05:52:33;100326.08;;;21.20;61.23
80934;BME280;70392;51.144;17.050;2023-06-19T05:54:50;100326.14;;;21.38;60.64
80934;BME280;70392;51.144;17.050;2023-06-19T05:57:06;100326.03;;;21.51;60.31
80934;BME280;70392;51.144;17.050;2023-06-19T05:59:32;100322.18;;;21.64;59.81
80934;BME280;70392;51.144;17.050;2023-06-19T06:01:50;100323.67;;;21.74;59.58
80934;BME280;70392;51.144;17.050;2023-06-19T06:04:09;100328.36;;;21.84;59.45
80934;BME280;70392;51.144;17.050;2023-06-19T06:06:25;100331.71;;;21.96;59.52
80934;BME280;70392;51.144;17.050;2023-06-19T06:08:41;100334.25;;;22.10;59.36
80934;BME280;70392;51.144;17.050;2023-06-19T06:11:08;100333.68;;;22.30;58.71
80934;BME280;70392;51.144;17.050;2023-06-19T06:13:25;100334.88;;;22.47;58.25
80934;BME280;70392;51.144;17.050;2023-06-19T06:15:40;100343.12;;;22.66;57.96
80934;BME280;70392;51.144;17.050;2023-06-19T06:18:06;100343.88;;;22.87;57.23
80934;BME280;70392;51.144;17.050;2023-06-19T06:20:22;100344.63;;;23.00;56.87
80934;BME280;70392;51.144;17.050;2023-06-19T06:22:47;100350.73;;;23.11;56.61
80934;BME280;70392;51.144;17.050;2023-06-19T06:25:04;100352.55;;;23.23;55.44
80934;BME280;70392;51.144;17.050;2023-06-19T06:27:21;100355.70;;;23.32;55.36
80934;BME280;70392;51.144;17.050;2023-06-19T06:29:37;100359.14;;;23.42;54.59
80934;BME280;70392;51.144;17.050;2023-06-19T06:32:06;100355.87;;;23.56;54.32
80934;BME280;70392;51.144;17.050;2023-06-19T06:34:25;100361.15;;;23.70;53.96
80934;BME280;70392;51.144;17.050;2023-06-19T06:36:41;100360.59;;;23.77;53.96
80934;BME280;70392;51.144;17.050;2023-06-19T06:39:04;100367.03;;;23.90;52.94
80934;BME280;70392;51.144;17.050;2023-06-19T06:41:22;100365.63;;;23.97;52.82
80934;BME280;70392;51.144;17.050;2023-06-19T06:43:40;100366.20;;;24.12;52.51
80934;BME280;70392;51.144;17.050;2023-06-19T06:46:06;100367.98;;;24.27;52.95
80934;BME280;70392;51.144;17.050;2023-06-19T06:48:22;100370.22;;;24.43;53.23
80934;BME280;70392;51.144;17.050;2023-06-19T06:50:41;100370.41;;;24.53;52.66
80934;BME280;70392;51.144;17.050;2023-06-19T06:52:57;100371.64;;;24.63;52.55
80934;BME280;70392;51.144;17.050;2023-06-19T06:55:34;100375.13;;;24.74;51.70
80934;BME280;70392;51.144;17.050;2023-06-19T06:57:51;100382.55;;;24.83;51.00
80934;BME280;70392;51.144;17.050;2023-06-19T07:00:11;100382.13;;;24.90;50.73
80934;BME280;70392;51.144;17.050;2023-06-19T07:02:48;100382.49;;;25.03;50.94
80934;BME280;70392;51.144;17.050;2023-06-19T07:05:09;100382.85;;;25.19;50.79
80934;BME280;70392;51.144;17.050;2023-06-19T07:07:29;100376.57;;;25.29;50.11
80934;BME280;70392;51.144;17.050;2023-06-19T07:09:45;100388.94;;;25.33;49.70
80934;BME280;70392;51.144;17.050;2023-06-19T07:12:04;100383.11;;;25.39;49.46
80934;BME280;70392;51.144;17.050;2023-06-19T07:14:25;100386.53;;;25.43;49.47
80934;BME280;70392;51.144;17.050;2023-06-19T07:16:41;100385.84;;;25.56;49.55
80934;BME280;70392;51.144;17.050;2023-06-19T07:19:17;100379.55;;;25.74;49.32
80934;BME280;70392;51.144;17.050;2023-06-19T07:21:35;100376.24;;;25.89;49.40
80934;BME280;70392;51.144;17.050;2023-06-19T07:23:51;100383.95;;;26.06;49.38
80934;BME280;70392;51.144;17.050;2023-06-19T07:26:09;100379.16;;;26.19;49.11
80934;BME280;70392;51.144;17.050;2023-06-19T07:28:26;100378.09;;;26.35;48.01
80934;BME280;70392;51.144;17.050;2023-06-19T07:30:47;100375.07;;;26.45;47.82
80934;BME280;70392;51.144;17.050;2023-06-19T07:33:04;100375.45;;;26.52;47.58
80934;BME280;70392;51.144;17.050;2023-06-19T07:35:29;100378.36;;;26.67;47.24
80934;BME280;70392;51.144;17.050;2023-06-19T07:37:45;100373.45;;;26.68;47.01
80934;BME280;70392;51.144;17.050;2023-06-19T07:40:02;100385.07;;;26.71;47.13
80934;BME280;70392;51.144;17.050;2023-06-19T07:42:19;100379.90;;;26.76;46.00
80934;BME280;70392;51.144;17.050;2023-06-19T07:44:45;100386.60;;;26.86;46.73
80934;BME280;70392;51.144;17.050;2023-06-19T07:47:01;100381.15;;;26.92;47.04
80934;BME280;70392;51.144;17.050;2023-06-19T07:49:17;100378.89;;;27.01;46.57
80934;BME280;70392;51.144;17.050;2023-06-19T07:51:33;100379.20;;;27.10;45.99
80934;BME280;70392;51.144;17.050;2023-06-19T07:53:49;100379.14;;;27.16;45.55
80934;BME280;70392;51.144;17.050;2023-06-19T07:56:12;100372.53;;;27.37;45.73
80934;BME280;70392;51.144;17.050;2023-06-19T07:58:30;100379.45;;;27.47;45.91
80934;BME280;70392;51.144;17.050;2023-06-19T08:00:46;100380.63;;;27.61;46.53
80934;BME280;70392;51.144;17.050;2023-06-19T08:03:24;100381.55;;;27.75;46.38
80934;BME280;70392;51.144;17.050;2023-06-19T08:05:40;100370.05;;;27.92;46.02
80934;BME280;70392;51.144;17.050;2023-06-19T08:08:01;100374.06;;;28.00;45.13
80934;BME280;70392;51.144;17.050;2023-06-19T08:10:20;100370.17;;;28.04;44.73
80934;BME280;70392;51.144;17.050;2023-06-19T08:12:35;100373.31;;;28.06;44.82
80934;BME280;70392;51.144;17.050;2023-06-19T08:14:52;100375.70;;;28.16;45.26
80934;BME280;70392;51.144;17.050;2023-06-19T08:17:07;100374.70;;;28.25;45.40
80934;BME280;70392;51.144;17.050;2023-06-19T08:19:24;100373.84;;;28.29;44.33
80934;BME280;70392;51.144;17.050;2023-06-19T08:21:40;100371.64;;;28.37;44.54
80934;BME280;70392;51.144;17.050;2023-06-19T08:24:17;100369.41;;;28.52;44.10
80934;BME280;70392;51.144;17.050;2023-06-19T08:26:33;100368.76;;;28.62;43.39
80934;BME280;70392;51.144;17.050;2023-06-19T08:28:49;100364.55;;;28.73;43.86
80934;BME280;70392;51.144;17.050;2023-06-19T08:31:16;100367.17;;;28.77;42.62
80934;BME280;70392;51.144;17.050;2023-06-19T08:33:35;100358.61;;;28.83;42.84
80934;BME280;70392;51.144;17.050;2023-06-19T08:36:00;100353.35;;;28.95;42.12
80934;BME280;70392;51.144;17.050;2023-06-19T08:38:16;100356.03;;;28.93;40.46
80934;BME280;70392;51.144;17.050;2023-06-19T08:40:33;100355.73;;;28.89;40.22
80934;BME280;70392;51.144;17.050;2023-06-19T08:42:52;100356.56;;;28.99;41.81
80934;BME280;70392;51.144;17.050;2023-06-19T08:45:09;100348.59;;;29.04;40.54
80934;BME280;70392;51.144;17.050;2023-06-19T08:47:30;100349.71;;;28.98;40.19
80934;BME280;70392;51.144;17.050;2023-06-19T08:49:46;100355.12;;;28.93;41.27
80934;BME280;70392;51.144;17.050;2023-06-19T08:52:04;100349.80;;;28.96;39.77
80934;BME280;70392;51.144;17.050;2023-06-19T08:54:22;100348.34;;;28.76;40.12
80934;BME280;70392;51.144;17.050;2023-06-19T08:56:38;100344.91;;;28.63;40.41
80934;BME280;70392;51.144;17.050;2023-06-19T08:58:54;100342.98;;;28.63;39.75
80934;BME280;70392;51.144;17.050;2023-06-19T09:01:10;100340.20;;;28.61;40.16
80934;BME280;70392;51.144;17.050;2023-06-19T09:03:34;100342.54;;;28.68;40.47
80934;BME280;70392;51.144;17.050;2023-06-19T09:05:50;100347.36;;;28.83;40.69
80934;BME280;70392;51.144;17.050;2023-06-19T09:08:17;100346.64;;;29.09;39.65
80934;BME280;70392;51.144;17.050;2023-06-19T09:10:33;100353.91;;;29.30;39.83
80934;BME280;70392;51.144;17.050;2023-06-19T09:13:00;100346.91;;;29.36;36.92
80934;BME280;70392;51.144;17.050;2023-06-19T09:15:17;100348.62;;;29.39;37.17
80934;BME280;70392;51.144;17.050;2023-06-19T09:17:47;100347.42;;;29.40;37.20
80934;BME280;70392;51.144;17.050;2023-06-19T09:20:06;100350.41;;;29.42;38.28
80934;BME280;70392;51.144;17.050;2023-06-19T09:22:25;100338.80;;;29.57;38.49
80934;BME280;70392;51.144;17.050;2023-06-19T09:24:41;100342.59;;;29.85;37.85
80934;BME280;70392;51.144;17.050;2023-06-19T09:27:09;100347.92;;;30.11;37.27
80934;BME280;70392;51.144;17.050;2023-06-19T09:29:28;100336.17;;;30.39;37.70
80934;BME280;70392;51.144;17.050;2023-06-19T09:31:45;100346.50;;;30.45;36.73
80934;BME280;70392;51.144;17.050;2023-06-19T09:34:18;100342.45;;;30.55;36.64
80934;BME280;70392;51.144;17.050;2023-06-19T09:36:35;100346.22;;;30.64;36.94
80934;BME280;70392;51.144;17.050;2023-06-19T09:38:52;100348.51;;;30.69;36.89
80934;BME280;70392;51.144;17.050;2023-06-19T09:41:31;100342.34;;;30.67;34.62
80934;BME280;70392;51.144;17.050;2023-06-19T09:43:47;100342.15;;;30.61;34.55
80934;BME280;70392;51.144;17.050;2023-06-19T09:46:12;100341.05;;;30.70;35.58
80934;BME280;70392;51.144;17.050;2023-06-19T09:48:33;100344.93;;;30.78;35.16
80934;BME280;70392;51.144;17.050;2023-06-19T09:50:54;100337.18;;;30.81;34.74
80934;BME280;70392;51.144;17.050;2023-06-19T09:53:23;100326.47;;;30.98;35.17
80934;BME280;70392;51.144;17.050;2023-06-19T09:55:40;100321.87;;;31.14;33.91
80934;BME280;70392;51.144;17.050;2023-06-19T09:58:01;100323.40;;;31.31;34.25
80934;BME280;70392;51.144;17.050;2023-06-19T10:00:31;100325.16;;;31.40;33.20
80934;BME280;70392;51.144;17.050;2023-06-19T10:02:49;100330.01;;;31.43;33.03
80934;BME280;70392;51.144;17.050;2023-06-19T10:05:12;100326.00;;;31.59;34.56
80934;BME280;70392;51.144;17.050;2023-06-19T10:07:34;100327.53;;;31.74;33.34
80934;BME280;70392;51.144;17.050;2023-06-19T10:12:57;100329.09;;;32.29;32.22
80934;BME280;70392;51.144;17.050;2023-06-19T10:15:25;100326.97;;;32.69;30.50
80934;BME280;70392;51.144;17.050;2023-06-19T10:17:50;100330.68;;;33.18;30.67
80934;BME280;70392;51.144;17.050;2023-06-19T10:22:35;100325.05;;;34.48;29.25
80934;BME280;70392;51.144;17.050;2023-06-19T10:24:54;100317.66;;;34.88;27.41
80934;BME280;70392;51.144;17.050;2023-06-19T10:27:21;100314.83;;;35.50;26.01
80934;BME280;70392;51.144;17.050;2023-06-19T10:29:52;100315.66;;;35.97;25.80
80934;BME280;70392;51.144;17.050;2023-06-19T10:32:08;100315.11;;;36.62;23.76
80934;BME280;70392;51.144;17.050;2023-06-19T10:34:33;100319.31;;;37.64;22.21
80934;BME280;70392;51.144;17.050;2023-06-19T10:36:50;100321.73;;;38.22;23.57
80934;BME280;70392;51.144;17.050;2023-06-19T10:39:07;100323.31;;;38.08;22.60
80934;BME280;70392;51.144;17.050;2023-06-19T10:41:27;100316.67;;;37.28;23.77
80934;BME280;70392;51.144;17.050;2023-06-19T10:46:12;100318.06;;;37.27;23.98
80934;BME280;70392;51.144;17.050;2023-06-19T10:48:37;100307.69;;;37.31;24.29
80934;BME280;70392;51.144;17.050;2023-06-19T10:50:56;100307.44;;;37.20;23.40
80934;BME280;70392;51.144;17.050;2023-06-19T10:53:26;100308.39;;;36.98;22.98
80934;BME280;70392;51.144;17.050;2023-06-19T10:55:42;100303.91;;;37.35;22.89
80934;BME280;70392;51.144;17.050;2023-06-19T10:58:15;100305.36;;;38.42;21.71
80934;BME280;70392;51.144;17.050;2023-06-19T11:00:34;100305.21;;;39.10;21.54
80934;BME280;70392;51.144;17.050;2023-06-19T11:02:51;100300.97;;;38.51;20.60
80934;BME280;70392;51.144;17.050;2023-06-19T11:05:11;100301.75;;;37.72;20.68
80934;BME280;70392;51.144;17.050;2023-06-19T11:07:37;100297.66;;;36.99;21.21
80934;BME280;70392;51.144;17.050;2023-06-19T11:09:52;100298.32;;;36.70;21.73
80934;BME280;70392;51.144;17.050;2023-06-19T11:12:09;100289.94;;;36.46;22.99
80934;BME280;70392;51.144;17.050;2023-06-19T11:14:29;100293.50;;;36.28;22.68
80934;BME280;70392;51.144;17.050;2023-06-19T11:16:54;100291.54;;;36.24;22.88
80934;BME280;70392;51.144;17.050;2023-06-19T11:19:19;100291.87;;;36.12;23.07
80934;BME280;70392;51.144;17.050;2023-06-19T11:21:39;100293.25;;;35.97;23.90
80934;BME280;70392;51.144;17.050;2023-06-19T11:23:57;100295.83;;;35.72;23.17
80934;BME280;70392;51.144;17.050;2023-06-19T11:26:14;100284.83;;;35.63;23.64
80934;BME280;70392;51.144;17.050;2023-06-19T11:28:48;100284.66;;;35.56;23.80
80934;BME280;70392;51.144;17.050;2023-06-19T11:31:04;100288.55;;;35.52;24.32
80934;BME280;70392;51.144;17.050;2023-06-19T11:33:22;100284.36;;;35.45;24.44
80934;BME280;70392;51.144;17.050;2023-06-19T11:35:40;100286.96;;;35.50;24.79
80934;BME280;70392;51.144;17.050;2023-06-19T11:38:03;100284.14;;;35.76;24.67
80934;BME280;70392;51.144;17.050;2023-06-19T11:40:23;100281.61;;;36.07;24.16
80934;BME280;70392;51.144;17.050;2023-06-19T11:42:45;100277.77;;;36.28;23.53
80934;BME280;70392;51.144;17.050;2023-06-19T11:45:04;100272.92;;;36.48;23.98
80934;BME280;70392;51.144;17.050;2023-06-19T11:47:33;100277.53;;;36.70;23.52
80934;BME280;70392;51.144;17.050;2023-06-19T11:49:50;100271.59;;;37.06;22.68
80934;BME280;70392;51.144;17.050;2023-06-19T11:52:07;100270.84;;;37.33;21.19
80934;BME280;70392;51.144;17.050;2023-06-19T11:54:23;100264.57;;;37.60;21.55
80934;BME280;70392;51.144;17.050;2023-06-19T11:56:40;100269.35;;;37.62;21.84
80934;BME280;70392;51.144;17.050;2023-06-19T11:58:56;100268.47;;;37.45;20.25
80934;BME280;70392;51.144;17.050;2023-06-19T12:01:12;100266.53;;;37.36;20.84
80934;BME280;70392;51.144;17.050;2023-06-19T12:03:30;100264.55;;;37.21;21.39
80934;BME280;70392;51.144;17.050;2023-06-19T12:05:45;100264.59;;;37.24;22.11
80934;BME280;70392;51.144;17.050;2023-06-19T12:08:04;100269.26;;;37.20;21.79
80934;BME280;70392;51.144;17.050;2023-06-19T12:10:21;100262.21;;;37.24;22.04
80934;BME280;70392;51.144;17.050;2023-06-19T12:12:45;100265.93;;;37.11;21.17
80934;BME280;70392;51.144;17.050;2023-06-19T12:15:01;100260.75;;;36.86;20.75
80934;BME280;70392;51.144;17.050;2023-06-19T12:17:17;100254.30;;;36.65;21.25
80934;BME280;70392;51.144;17.050;2023-06-19T12:19:34;100253.84;;;36.43;21.57